Time;durP1;ratioP1;P1;durP2;ratioP2;P2;SDS_P1;SDS_P2;PMS_P1;PMS_P2;Temp;Humidity;BMP_temperature;BMP_pressure;BME280_temperature;BME280_humidity;BME280_pressure;Samples;Min_cycle;Max_cycle;Signal;HPM_P1;HPM_P2
2021/05/30 00:01:44;;;;;;;4.57;3.63;;;21.00;89.80;;;;;;5092199;28;20048;-60
2021/05/30 00:04:12;;;;;;;5.82;3.58;;;21.00;89.90;;;;;;5104530;28;20116;-60
2021/05/30 00:06:40;;;;;;;6.13;3.85;;;21.00;90.00;;;;;;5109016;28;20089;-60
2021/05/30 00:09:08;;;;;;;7.93;4.07;;;21.00;89.90;;;;;;5072745;28;20056;-60
2021/05/30 00:11:37;;;;;;;6.25;3.63;;;20.90;89.90;;;;;;5069014;28;20036;-59
2021/05/30 00:14:14;;;;;;;5.07;3.50;;;20.90;89.80;;;;;;5082062;28;20052;-60
2021/05/30 00:16:42;;;;;;;5.15;3.28;;;20.90;90.00;;;;;;5108987;28;20054;-60
2021/05/30 00:19:10;;;;;;;7.40;3.35;;;20.90;89.90;;;;;;5105212;28;20052;-59
2021/05/30 00:21:44;;;;;;;5.78;3.33;;;20.90;90.00;;;;;;5108988;28;20487;-60
2021/05/30 00:24:12;;;;;;;4.45;2.80;;;20.90;90.00;;;;;;5087963;28;20047;-60
2021/05/30 00:26:39;;;;;;;7.22;2.92;;;20.80;90.00;;;;;;5108909;28;20130;-60
2021/05/30 00:29:07;;;;;;;5.97;3.70;;;20.80;90.10;;;;;;5100395;28;20134;-59
2021/05/30 00:31:35;;;;;;;4.55;2.95;;;20.70;90.10;;;;;;5097962;28;20134;-60
2021/05/30 00:34:03;;;;;;;4.20;2.88;;;20.70;90.20;;;;;;5103352;28;20073;-60
2021/05/30 00:36:30;;;;;;;4.65;2.53;;;20.70;90.30;;;;;;5108877;28;20072;-60
2021/05/30 00:38:58;;;;;;;4.15;3.10;;;20.70;90.30;;;;;;5104592;28;20051;-60
2021/05/30 00:41:26;;;;;;;4.93;3.35;;;20.70;90.40;;;;;;5091158;28;20036;-59
2021/05/30 00:43:55;;;;;;;4.38;3.28;;;20.70;90.40;;;;;;5103311;28;20130;-60
2021/05/30 00:46:24;;;;;;;8.50;3.53;;;20.70;90.40;;;;;;5073886;28;20063;-60
2021/05/30 00:48:52;;;;;;;8.25;3.00;;;20.70;90.50;;;;;;5086680;28;20058;-60
2021/05/30 00:51:20;;;;;;;3.85;2.67;;;20.70;90.60;;;;;;5108769;28;20036;-60
2021/05/30 00:53:48;;;;;;;4.70;3.10;;;20.70;90.60;;;;;;5103610;28;20043;-59
2021/05/30 00:56:16;;;;;;;7.03;3.50;;;20.70;90.60;;;;;;5109897;28;20044;-60
2021/05/30 00:58:43;;;;;;;5.68;3.10;;;20.70;90.60;;;;;;5090224;28;20450;-60
2021/05/30 01:01:11;;;;;;;3.97;2.55;;;20.60;90.50;;;;;;5114238;28;20043;-59
2021/05/30 01:03:40;;;;;;;4.40;3.35;;;20.70;90.60;;;;;;5107002;28;20048;-59
2021/05/30 01:06:10;;;;;;;3.40;2.60;;;20.60;90.60;;;;;;5112715;28;20040;-60
2021/05/30 01:08:38;;;;;;;4.85;3.13;;;20.60;90.60;;;;;;5067736;28;20045;-59
2021/05/30 01:11:15;;;;;;;4.80;2.95;;;20.60;90.70;;;;;;5080574;28;20479;-60
2021/05/30 01:13:47;;;;;;;4.55;2.90;;;20.60;90.80;;;;;;5081688;28;20049;-59
2021/05/30 01:16:15;;;;;;;4.60;3.22;;;20.60;90.80;;;;;;5082822;28;20126;-60
2021/05/30 01:18:44;;;;;;;6.45;3.35;;;20.60;90.90;;;;;;5089913;28;20130;-59
2021/05/30 01:21:12;;;;;;;4.85;3.08;;;20.60;90.80;;;;;;5095691;28;20036;-60
2021/05/30 01:23:41;;;;;;;4.70;2.88;;;20.60;90.90;;;;;;5106869;28;20039;-60
2021/05/30 01:26:09;;;;;;;4.13;2.75;;;20.50;90.90;;;;;;5095896;28;20035;-60
2021/05/30 01:28:37;;;;;;;5.10;2.90;;;20.50;90.90;;;;;;5106545;28;20412;-60
2021/05/30 01:31:05;;;;;;;4.68;2.92;;;20.50;91.10;;;;;;5113035;28;20396;-59
2021/05/30 01:33:33;;;;;;;6.32;2.92;;;20.50;91.00;;;;;;5107845;27;20043;-59
2021/05/30 01:36:01;;;;;;;4.38;3.40;;;20.50;91.00;;;;;;5113255;28;20044;-60
2021/05/30 01:38:29;;;;;;;5.40;3.00;;;20.50;91.00;;;;;;5106096;28;20101;-59
2021/05/30 01:40:57;;;;;;;5.20;3.08;;;20.50;91.00;;;;;;5113783;28;20052;-60
2021/05/30 01:43:26;;;;;;;4.93;3.70;;;20.50;91.00;;;;;;5105392;28;20050;-59
2021/05/30 01:45:55;;;;;;;5.78;2.80;;;20.40;91.10;;;;;;5114007;28;20035;-60
2021/05/30 01:48:23;;;;;;;4.55;2.80;;;20.40;91.10;;;;;;5104826;28;20047;-59
2021/05/30 01:50:51;;;;;;;5.07;3.65;;;20.40;91.10;;;;;;5097370;28;20051;-59
2021/05/30 01:53:24;;;;;;;5.65;3.63;;;20.40;91.10;;;;;;5066985;28;20055;-60
2021/05/30 01:58:43;;;;;;;8.13;3.70;;;20.40;91.10;;;;;;5037194;28;20502;-59
2021/05/30 02:01:14;;;;;;;6.70;3.30;;;20.30;91.10;;;;;;5112681;28;20047;-59
2021/05/30 02:03:44;;;;;;;4.80;3.50;;;20.30;91.10;;;;;;5106209;28;20048;-59
2021/05/30 02:06:15;;;;;;;4.95;3.58;;;20.30;91.10;;;;;;5111635;28;20059;-60
2021/05/30 02:08:46;;;;;;;5.57;3.40;;;20.30;91.10;;;;;;5088941;28;20054;-59
2021/05/30 02:11:14;;;;;;;4.78;2.78;;;20.30;91.10;;;;;;5111521;28;20047;-60
2021/05/30 02:13:43;;;;;;;5.20;3.53;;;20.30;91.10;;;;;;5105911;28;20073;-60
2021/05/30 02:16:11;;;;;;;5.55;3.58;;;20.20;91.40;;;;;;5094602;28;20128;-60
2021/05/30 02:18:39;;;;;;;5.47;3.47;;;20.30;91.20;;;;;;5105694;28;20051;-59
2021/05/30 02:21:07;;;;;;;5.68;3.95;;;20.20;91.20;;;;;;5111532;28;20058;-59
2021/05/30 02:23:35;;;;;;;4.78;3.25;;;20.20;91.20;;;;;;5099241;28;20131;-59
2021/05/30 02:26:04;;;;;;;4.80;3.08;;;20.20;91.20;;;;;;5095398;28;20458;-59
2021/05/30 02:28:32;;;;;;;7.35;4.30;;;20.20;91.30;;;;;;5088627;28;20051;-60
2021/05/30 02:31:03;;;;;;;5.65;3.30;;;20.10;91.30;;;;;;5095768;28;20043;-60
2021/05/30 02:33:31;;;;;;;5.28;3.35;;;20.10;91.20;;;;;;5105266;28;20047;-59
2021/05/30 02:35:59;;;;;;;6.03;3.42;;;20.10;91.20;;;;;;5112486;28;20560;-60
2021/05/30 02:38:27;;;;;;;6.20;4.15;;;20.10;91.30;;;;;;5104321;28;20513;-60
2021/05/30 02:40:54;;;;;;;6.85;4.13;;;20.10;91.30;;;;;;5112932;28;20493;-60
2021/05/30 02:43:22;;;;;;;4.65;3.35;;;20.10;91.30;;;;;;5103787;28;20493;-59
2021/05/30 02:45:50;;;;;;;6.50;3.72;;;20.00;91.30;;;;;;5113358;28;20051;-59
2021/05/30 02:48:18;;;;;;;5.93;3.75;;;20.00;91.30;;;;;;5062064;28;20143;-60
2021/05/30 02:50:57;;;;;;;11.68;4.10;;;20.00;91.30;;;;;;5093801;28;20043;-60
2021/05/30 02:53:30;;;;;;;8.15;3.42;;;20.00;91.30;;;;;;5102926;28;20071;-59
2021/05/30 02:55:59;;;;;;;9.82;4.38;;;20.10;91.40;;;;;;5095438;28;20048;-60
2021/05/30 02:58:29;;;;;;;5.93;3.85;;;20.00;91.30;;;;;;5103984;28;20039;-60
2021/05/30 03:00:58;;;;;;;6.50;3.80;;;20.00;91.40;;;;;;5078438;28;20060;-59
2021/05/30 03:03:36;;;;;;;6.93;4.57;;;20.00;91.40;;;;;;5098171;28;20079;-59
2021/05/30 03:06:04;;;;;;;5.35;3.10;;;20.00;91.50;;;;;;5094549;28;20468;-60
2021/05/30 03:08:31;;;;;;;6.97;3.33;;;20.10;91.60;;;;;;5087685;28;20048;-60
2021/05/30 03:10:59;;;;;;;4.50;3.40;;;20.00;91.70;;;;;;5111810;28;20036;-59
2021/05/30 03:13:27;;;;;;;5.70;3.90;;;20.00;91.70;;;;;;5105166;28;20055;-59
2021/05/30 03:15:55;;;;;;;5.57;3.83;;;20.00;91.90;;;;;;5112142;28;20067;-59
2021/05/30 03:18:22;;;;;;;7.07;4.22;;;20.00;92.00;;;;;;5102948;28;20044;-60
2021/05/30 03:20:50;;;;;;;5.38;4.22;;;20.00;92.10;;;;;;5111580;28;20093;-59
2021/05/30 03:23:18;;;;;;;6.07;3.83;;;20.00;92.10;;;;;;5101708;28;20047;-60
2021/05/30 03:25:46;;;;;;;5.57;4.07;;;20.10;92.20;;;;;;5114019;28;20044;-60
2021/05/30 03:28:14;;;;;;;6.55;4.53;;;20.00;92.20;;;;;;5085507;28;20048;-60
2021/05/30 03:30:42;;;;;;;6.13;4.03;;;20.00;92.20;;;;;;5112449;28;20048;-59
2021/05/30 03:33:10;;;;;;;5.65;4.30;;;20.00;92.30;;;;;;5082964;28;20049;-59
2021/05/30 03:35:37;;;;;;;9.82;4.50;;;20.00;92.50;;;;;;5072534;28;20075;-61
2021/05/30 03:38:08;;;;;;;6.82;4.28;;;20.10;92.60;;;;;;5121809;27;20383;-59
2021/05/30 03:40:56;;;;;;;7.13;4.55;;;20.10;92.70;;;;;;5076014;28;20082;-60
2021/05/30 03:43:23;;;;;;;6.88;5.13;;;20.10;92.80;;;;;;5102618;28;20047;-59
2021/05/30 03:45:51;;;;;;;8.30;4.75;;;20.10;92.90;;;;;;5112168;28;20056;-59
2021/05/30 03:48:19;;;;;;;6.80;4.22;;;20.10;93.00;;;;;;5100113;28;20386;-60
2021/05/30 03:50:49;;;;;;;7.00;4.47;;;20.10;93.10;;;;;;5094934;28;20073;-60
2021/05/30 03:53:18;;;;;;;5.20;3.72;;;20.10;93.20;;;;;;5103063;28;20542;-59
2021/05/30 03:55:50;;;;;;;5.60;4.43;;;20.10;93.20;;;;;;5094968;28;20040;-60
2021/05/30 03:58:20;;;;;;;8.20;4.55;;;20.20;93.20;;;;;;5064792;28;20044;-59
2021/05/30 04:00:48;;;;;;;5.82;4.07;;;20.20;93.10;;;;;;5092886;28;20093;-60
2021/05/30 04:03:16;;;;;;;10.02;5.20;;;20.20;93.10;;;;;;5101279;28;20485;-60
2021/05/30 04:05:43;;;;;;;5.32;4.00;;;20.20;93.10;;;;;;5111829;28;20054;-60
2021/05/30 04:08:11;;;;;;;8.02;3.67;;;20.20;93.10;;;;;;5116291;27;20055;-59
2021/05/30 04:10:42;;;;;;;7.47;4.65;;;20.30;93.00;;;;;;5073207;28;20052;-60
2021/05/30 04:13:10;;;;;;;5.35;3.58;;;20.30;92.90;;;;;;5103982;28;20051;-59
2021/05/30 04:15:38;;;;;;;7.72;3.63;;;20.30;92.80;;;;;;5092293;28;20117;-61
2021/05/30 04:18:05;;;;;;;5.25;3.55;;;20.40;92.80;;;;;;5099648;28;20408;-59
2021/05/30 04:20:33;;;;;;;5.75;4.28;;;20.30;92.80;;;;;;5112456;28;20051;-60
2021/05/30 04:23:01;;;;;;;5.38;4.28;;;20.40;92.70;;;;;;5100035;28;20052;-59
2021/05/30 04:25:30;;;;;;;5.50;3.78;;;20.40;92.70;;;;;;5112886;28;20035;-59
2021/05/30 04:27:58;;;;;;;5.57;3.78;;;20.40;92.70;;;;;;5100168;28;20489;-59
2021/05/30 04:30:26;;;;;;;4.80;3.67;;;20.50;92.60;;;;;;5095514;28;20493;-60
2021/05/30 04:32:53;;;;;;;4.45;3.10;;;20.50;92.70;;;;;;5100848;28;20058;-59
2021/05/30 04:35:21;;;;;;;5.20;3.53;;;20.50;92.50;;;;;;5112483;28;20062;-59
2021/05/30 04:37:49;;;;;;;5.30;3.70;;;20.50;92.40;;;;;;5101203;28;20048;-60
2021/05/30 04:40:18;;;;;;;6.15;4.13;;;20.60;92.30;;;;;;5113846;28;20055;-60
2021/05/30 04:42:46;;;;;;;5.43;3.05;;;20.60;92.30;;;;;;5099741;28;20127;-60
2021/05/30 04:45:14;;;;;;;6.05;2.92;;;20.60;92.10;;;;;;5095574;28;20485;-60
2021/05/30 04:47:42;;;;;;;6.05;3.50;;;20.60;92.00;;;;;;5063136;28;20102;-59
2021/05/30 04:50:11;;;;;;;6.43;2.67;;;20.60;92.00;;;;;;5038905;28;20048;-59
2021/05/30 04:52:40;;;;;;;5.53;3.67;;;20.50;91.90;;;;;;5095436;28;20040;-59
2021/05/30 04:55:11;;;;;;;7.95;3.80;;;20.60;92.10;;;;;;5112201;28;20042;-59
2021/05/30 04:57:41;;;;;;;6.03;3.47;;;20.60;92.00;;;;;;5100567;28;20055;-59
2021/05/30 05:00:10;;;;;;;4.93;2.67;;;20.70;91.90;;;;;;5112133;28;20096;-60
2021/05/30 05:02:39;;;;;;;6.35;3.28;;;20.70;91.90;;;;;;5099866;28;20067;-60
2021/05/30 05:05:10;;;;;;;4.47;3.03;;;20.80;91.90;;;;;;5078391;28;20130;-59
2021/05/30 05:07:40;;;;;;;5.50;3.50;;;21.00;91.80;;;;;;5080532;28;20139;-59
2021/05/30 05:10:09;;;;;;;5.13;2.83;;;21.10;91.80;;;;;;5113271;28;20443;-59
2021/05/30 05:12:37;;;;;;;5.20;3.05;;;21.30;91.30;;;;;;5084137;28;20047;-60
2021/05/30 05:15:05;;;;;;;4.93;3.58;;;21.40;91.00;;;;;;5111414;28;20048;-59
2021/05/30 05:17:33;;;;;;;4.05;2.65;;;21.60;90.70;;;;;;5080720;28;20056;-61
2021/05/30 05:20:01;;;;;;;4.50;3.33;;;21.80;90.30;;;;;;5109682;28;20062;-60
2021/05/30 05:22:29;;;;;;;5.50;3.53;;;22.00;89.40;;;;;;5101371;28;20094;-59
2021/05/30 05:24:59;;;;;;;4.50;2.40;;;22.20;88.20;;;;;;5112132;28;20044;-59
2021/05/30 05:27:28;;;;;;;4.88;2.50;;;22.30;86.60;;;;;;5084948;28;20093;-60
2021/05/30 05:29:57;;;;;;;4.05;2.65;;;22.40;85.80;;;;;;5093779;28;20191;-59
2021/05/30 05:32:25;;;;;;;3.90;2.33;;;22.40;84.90;;;;;;5102076;28;20048;-63
2021/05/30 05:34:53;;;;;;;4.25;2.55;;;22.50;84.70;;;;;;5109543;28;20058;-59
2021/05/30 05:37:21;;;;;;;4.57;2.42;;;22.40;82.60;;;;;;5082594;28;20044;-60
2021/05/30 05:39:49;;;;;;;3.60;2.30;;;22.40;81.10;;;;;;5106619;28;20047;-60
2021/05/30 05:42:17;;;;;;;3.30;1.95;;;22.30;81.20;;;;;;5104549;28;20069;-60
2021/05/30 05:44:44;;;;;;;4.20;2.03;;;22.20;81.40;;;;;;5111683;28;20048;-60
2021/05/30 05:47:12;;;;;;;2.83;2.00;;;22.20;81.20;;;;;;5107722;28;20512;-60
2021/05/30 05:49:40;;;;;;;4.07;2.40;;;22.20;80.70;;;;;;5112733;28;20055;-60
2021/05/30 05:52:08;;;;;;;2.63;1.52;;;22.10;80.30;;;;;;5108130;28;20044;-60
2021/05/30 05:54:46;;;;;;;4.55;2.40;;;22.20;80.00;;;;;;5112262;28;20054;-59
2021/05/30 05:57:13;;;;;;;3.00;1.90;;;22.20;79.40;;;;;;5108388;28;20055;-60
2021/05/30 05:59:41;;;;;;;3.33;2.33;;;22.20;79.00;;;;;;5112286;28;20052;-60
2021/05/30 06:02:09;;;;;;;6.25;2.63;;;22.30;78.60;;;;;;5108769;28;20052;-59
2021/05/30 06:04:37;;;;;;;2.67;2.20;;;22.30;78.20;;;;;;5093470;28;20497;-60
2021/05/30 06:07:06;;;;;;;3.30;1.88;;;22.30;77.60;;;;;;5108141;28;20051;-60
2021/05/30 06:09:33;;;;;;;4.40;2.13;;;22.30;77.00;;;;;;5093614;28;20047;-59
2021/05/30 06:12:01;;;;;;;4.15;2.22;;;22.20;77.20;;;;;;5108737;28;20052;-59
2021/05/30 06:14:29;;;;;;;3.35;2.25;;;22.20;77.50;;;;;;5109319;28;20077;-60
2021/05/30 06:16:57;;;;;;;4.35;2.05;;;22.20;77.60;;;;;;5092458;28;20048;-60
2021/05/30 06:19:26;;;;;;;4.22;2.45;;;22.20;78.20;;;;;;5108572;28;20557;-60
2021/05/30 06:21:55;;;;;;;3.58;2.70;;;22.10;78.60;;;;;;5092529;28;20127;-60
2021/05/30 06:24:23;;;;;;;3.45;2.10;;;22.10;79.00;;;;;;5109678;28;20453;-60
2021/05/30 06:26:57;;;;;;;3.63;2.35;;;22.10;79.40;;;;;;5109702;28;20043;-60
2021/05/30 06:29:25;;;;;;;5.90;2.28;;;22.10;79.30;;;;;;5109781;28;20073;-59
2021/05/30 06:31:54;;;;;;;3.35;2.05;;;22.10;79.30;;;;;;5092556;28;20047;-59
2021/05/30 06:34:24;;;;;;;5.70;2.38;;;22.10;79.80;;;;;;5108121;28;20134;-60
2021/05/30 06:36:52;;;;;;;5.65;2.30;;;22.10;79.00;;;;;;5109536;28;20490;-60
2021/05/30 06:39:22;;;;;;;3.20;2.10;;;22.10;78.70;;;;;;5090934;28;20097;-60
2021/05/30 06:41:51;;;;;;;3.97;2.20;;;22.10;78.40;;;;;;5076189;28;20109;-60
2021/05/30 06:44:20;;;;;;;4.75;3.20;;;22.10;78.30;;;;;;5108633;28;20055;-60
2021/05/30 06:46:48;;;;;;;7.78;5.38;;;22.10;78.10;;;;;;5075961;28;20066;-60
2021/05/30 06:49:17;;;;;;;12.98;10.25;;;22.10;77.30;;;;;;5106847;28;20389;-60
2021/05/30 06:51:45;;;;;;;19.67;15.20;;;22.00;77.60;;;;;;5093591;28;20044;-60
2021/05/30 06:54:13;;;;;;;34.53;26.02;;;22.00;77.00;;;;;;5106241;28;20512;-60
2021/05/30 06:56:40;;;;;;;50.53;34.80;;;21.90;77.20;;;;;;5110409;28;20497;-60
2021/05/30 06:59:08;;;;;;;59.22;41.92;;;21.90;78.00;;;;;;5105881;28;20043;-60
2021/05/30 07:01:36;;;;;;;63.88;45.50;;;21.90;78.70;;;;;;5110513;28;20503;-60
2021/05/30 07:04:04;;;;;;;67.45;49.05;;;21.90;79.40;;;;;;5106207;28;20055;-60
2021/05/30 07:06:32;;;;;;;73.07;48.83;;;21.90;80.10;;;;;;5110468;28;20028;-60
2021/05/30 07:09:03;;;;;;;76.13;49.75;;;21.90;80.50;;;;;;5106624;27;20052;-60
2021/05/30 07:11:31;;;;;;;65.53;50.42;;;21.90;80.70;;;;;;5110921;28;20048;-60
2021/05/30 07:13:59;;;;;;;68.93;49.53;;;21.90;81.00;;;;;;5105077;28;20386;-60
2021/05/30 07:16:27;;;;;;;56.45;43.30;;;21.90;81.20;;;;;;5092313;28;20051;-61
2021/05/30 07:18:55;;;;;;;49.60;37.90;;;21.90;81.70;;;;;;5104731;28;20048;-60
2021/05/30 07:21:23;;;;;;;45.88;34.50;;;21.90;82.50;;;;;;5110208;28;20107;-60
2021/05/30 07:23:51;;;;;;;39.28;29.98;;;21.90;82.70;;;;;;5104805;28;20414;-60
2021/05/30 07:26:19;;;;;;;22.58;16.58;;;21.90;82.80;;;;;;5110154;28;20128;-60
2021/05/30 07:28:47;;;;;;;13.23;10.82;;;22.00;82.60;;;;;;5105530;28;20071;-59
2021/05/30 07:31:15;;;;;;;17.55;11.60;;;22.00;83.00;;;;;;5076539;28;20044;-59
2021/05/30 07:33:45;;;;;;;20.23;15.45;;;22.00;83.30;;;;;;5087900;28;20478;-60
2021/05/30 07:36:13;;;;;;;25.33;16.50;;;22.10;83.70;;;;;;5110077;28;20048;-61
2021/05/30 07:38:42;;;;;;;21.60;15.40;;;22.20;84.40;;;;;;5087485;28;20616;-61
2021/05/30 07:41:10;;;;;;;25.63;18.98;;;22.20;85.00;;;;;;5109923;28;20047;-61
2021/05/30 07:43:38;;;;;;;36.75;25.83;;;22.30;85.20;;;;;;5104143;28;20055;-61
2021/05/30 07:46:06;;;;;;;35.35;24.77;;;22.40;84.60;;;;;;5110295;28;20043;-61
2021/05/30 07:48:34;;;;;;;31.50;22.85;;;22.40;84.00;;;;;;5097230;28;20486;-61
2021/05/30 07:51:02;;;;;;;29.20;22.15;;;22.50;83.80;;;;;;5093834;28;20044;-60
2021/05/30 07:53:30;;;;;;;30.13;21.92;;;22.60;83.80;;;;;;5087106;28;20054;-61
2021/05/30 07:55:59;;;;;;;23.23;15.82;;;22.70;83.70;;;;;;5094244;28;20450;-61
2021/05/30 07:58:27;;;;;;;13.70;8.25;;;22.70;82.20;;;;;;5103019;28;20047;-61
2021/05/30 08:00:54;;;;;;;23.10;15.18;;;22.70;82.40;;;;;;5111467;28;20048;-61
2021/05/30 08:03:22;;;;;;;23.02;17.23;;;22.80;82.40;;;;;;5102080;28;20063;-61
2021/05/30 08:05:51;;;;;;;20.85;13.10;;;22.80;83.20;;;;;;5111421;28;20047;-61
2021/05/30 08:08:21;;;;;;;17.33;12.60;;;22.80;84.20;;;;;;5044127;28;20048;-61
2021/05/30 08:10:49;;;;;;;18.60;11.23;;;22.80;83.80;;;;;;5076069;28;20079;-61
2021/05/30 08:13:17;;;;;;;16.25;11.52;;;22.90;82.90;;;;;;5084479;28;20405;-61
2021/05/30 08:15:45;;;;;;;17.15;11.10;;;23.00;82.70;;;;;;5113171;28;20040;-61
2021/05/30 08:18:13;;;;;;;12.27;7.70;;;23.10;82.50;;;;;;5102517;28;20374;-62
2021/05/30 08:20:41;;;;;;;6.95;5.47;;;23.10;81.90;;;;;;5078044;28;20043;-61
2021/05/30 08:23:09;;;;;;;8.55;4.05;;;23.10;81.10;;;;;;5101465;28;20089;-60
2021/05/30 08:25:37;;;;;;;5.07;2.70;;;23.20;80.80;;;;;;5112253;28;20439;-61
2021/05/30 08:28:09;;;;;;;7.28;2.53;;;23.30;79.90;;;;;;5070524;28;20182;-61
2021/05/30 08:30:38;;;;;;;5.60;1.77;;;23.30;80.40;;;;;;5058621;28;20044;-61
2021/05/30 08:33:06;;;;;;;5.13;1.92;;;23.40;79.40;;;;;;5101198;28;20063;-61
2021/05/30 08:35:35;;;;;;;12.75;3.05;;;23.50;78.70;;;;;;5078967;28;20054;-61
2021/05/30 08:38:08;;;;;;;5.32;1.92;;;23.60;78.50;;;;;;5064384;28;20551;-61
2021/05/30 08:40:43;;;;;;;3.85;1.73;;;23.60;76.90;;;;;;5093200;28;20051;-61
2021/05/30 08:43:11;;;;;;;2.85;1.23;;;23.80;76.20;;;;;;5102491;28;20506;-61
2021/05/30 08:45:39;;;;;;;5.50;1.80;;;24.10;74.80;;;;;;5091952;28;20126;-61
2021/05/30 08:48:08;;;;;;;5.43;2.22;;;24.30;73.50;;;;;;5083622;28;20046;-61
2021/05/30 08:50:37;;;;;;;7.38;2.15;;;24.60;72.90;;;;;;5111126;28;20477;-61
2021/05/30 08:53:06;;;;;;;6.85;3.13;;;24.80;73.00;;;;;;5103225;28;20523;-60
2021/05/30 08:55:36;;;;;;;7.28;3.45;;;25.10;73.30;;;;;;5073466;28;20048;-60
2021/05/30 08:58:05;;;;;;;6.55;2.90;;;25.40;72.90;;;;;;5068204;28;20051;-60
2021/05/30 09:00:33;;;;;;;7.90;2.10;;;25.60;71.90;;;;;;5073311;28;20046;-61
2021/05/30 09:03:10;;;;;;;5.80;2.03;;;25.90;70.90;;;;;;5064666;28;20125;-61
2021/05/30 09:05:39;;;;;;;6.00;2.45;;;26.10;70.40;;;;;;5111221;28;20048;-61
2021/05/30 09:08:09;;;;;;;5.20;2.20;;;26.30;71.50;;;;;;5081894;28;20050;-61
2021/05/30 09:10:51;;;;;;;6.57;2.53;;;26.30;70.40;;;;;;5093239;28;20048;-61
2021/05/30 09:13:19;;;;;;;6.45;2.95;;;26.20;70.10;;;;;;5098500;28;20058;-61
2021/05/30 09:15:52;;;;;;;6.47;2.28;;;26.00;71.00;;;;;;5092446;28;20197;-61
2021/05/30 09:18:33;;;;;;;7.72;3.30;;;25.70;72.50;;;;;;5067644;28;20439;-61
2021/05/30 09:21:09;;;;;;;7.63;3.88;;;25.50;75.50;;;;;;5079499;28;20109;-61
2021/05/30 09:23:39;;;;;;;5.80;2.70;;;25.30;76.20;;;;;;5095900;28;20044;-61
2021/05/30 09:26:10;;;;;;;12.30;3.47;;;25.20;75.60;;;;;;5079730;28;20047;-61
2021/05/30 09:28:40;;;;;;;6.38;2.97;;;25.20;75.70;;;;;;5098989;28;20059;-61
2021/05/30 09:31:09;;;;;;;8.10;2.60;;;25.20;75.20;;;;;;5077757;28;20050;-61
2021/05/30 09:33:37;;;;;;;7.47;3.15;;;25.30;75.00;;;;;;5095170;28;20198;-61
2021/05/30 09:36:06;;;;;;;5.63;2.60;;;25.50;74.10;;;;;;5078288;28;20051;-61
2021/05/30 09:38:39;;;;;;;7.82;2.25;;;25.60;74.10;;;;;;5085550;28;20050;-61
2021/05/30 09:41:14;;;;;;;8.50;2.25;;;25.60;74.90;;;;;;5095859;28;20123;-61
2021/05/30 09:43:51;;;;;;;7.45;3.05;;;25.80;75.00;;;;;;5100615;28;20048;-61
2021/05/30 09:46:31;;;;;;;4.32;1.80;;;26.00;72.20;;;;;;5097142;28;20043;-61
2021/05/30 09:49:00;;;;;;;3.58;2.22;;;26.10;70.90;;;;;;5087782;28;20519;-61
2021/05/30 09:51:46;;;;;;;8.35;2.50;;;26.00;69.50;;;;;;5111532;28;20040;-61
2021/05/30 09:54:18;;;;;;;9.25;2.78;;;26.00;70.90;;;;;;5071800;28;20059;-61
2021/05/30 09:56:47;;;;;;;8.00;2.85;;;26.20;73.00;;;;;;5079302;28;20087;-61
2021/05/30 09:59:17;;;;;;;5.78;2.47;;;26.20;74.20;;;;;;5088650;28;20043;-61
2021/05/30 10:02:03;;;;;;;6.07;2.63;;;26.10;74.70;;;;;;5107650;28;20136;-61
2021/05/30 10:04:34;;;;;;;5.10;2.30;;;26.10;75.20;;;;;;5087816;28;20048;-61
2021/05/30 10:07:05;;;;;;;5.18;2.38;;;26.00;75.20;;;;;;5090270;28;20135;-61
2021/05/30 10:09:33;;;;;;;9.05;2.80;;;26.10;75.60;;;;;;5103188;28;20140;-61
2021/05/30 10:12:02;;;;;;;7.50;2.53;;;26.10;76.00;;;;;;5064933;28;20160;-61
2021/05/30 10:14:31;;;;;;;5.30;2.10;;;26.20;76.90;;;;;;5090581;28;20051;-61
2021/05/30 10:17:00;;;;;;;6.65;2.83;;;26.20;76.80;;;;;;5090447;28;20047;-61
2021/05/30 10:19:49;;;;;;;5.00;2.88;;;26.20;75.70;;;;;;5093647;28;20148;-60
2021/05/30 10:22:18;;;;;;;7.75;3.47;;;26.10;76.00;;;;;;5069703;28;20048;-60
2021/05/30 10:24:46;;;;;;;7.45;3.35;;;26.10;76.30;;;;;;5092624;28;20055;-60
2021/05/30 10:27:29;;;;;;;5.57;2.92;;;26.00;75.40;;;;;;5084459;28;20052;-61
2021/05/30 10:30:07;;;;;;;4.45;2.42;;;26.00;72.70;;;;;;5077367;28;20051;-60
2021/05/30 10:32:36;;;;;;;5.45;2.30;;;25.90;70.40;;;;;;5085181;28;20051;-60
2021/05/30 10:35:17;;;;;;;2.88;1.95;;;25.90;71.00;;;;;;5112130;28;20047;-61
2021/05/30 10:37:47;;;;;;;3.60;2.40;;;25.80;71.90;;;;;;5101795;28;20406;-61
2021/05/30 10:40:22;;;;;;;7.38;3.85;;;25.70;72.90;;;;;;5114008;28;20079;-61
2021/05/30 10:43:08;;;;;;;7.13;3.30;;;25.70;73.90;;;;;;5099691;28;20048;-61
2021/05/30 10:45:42;;;;;;;9.23;3.42;;;25.50;74.60;;;;;;5112957;28;20130;-61
2021/05/30 10:48:19;;;;;;;5.50;3.55;;;25.60;73.80;;;;;;5084108;28;20039;-61
2021/05/30 10:53:46;;;;;;;9.75;3.50;;;25.50;73.10;;;;;;5100863;28;20047;-61
2021/05/30 10:56:21;;;;;;;4.45;2.78;;;25.60;73.30;;;;;;5102198;28;20044;-61
2021/05/30 10:59:07;;;;;;;7.57;3.25;;;25.60;72.80;;;;;;5101811;28;20044;-61
2021/05/30 11:01:59;;;;;;;4.90;2.88;;;25.70;72.60;;;;;;5095914;28;20039;-60
2021/05/30 11:04:28;;;;;;;9.18;3.30;;;25.70;72.60;;;;;;5046900;28;20054;-61
2021/05/30 11:07:16;;;;;;;5.75;3.85;;;25.70;71.80;;;;;;5098306;28;20093;-61
2021/05/30 11:09:54;;;;;;;6.28;4.22;;;25.80;71.40;;;;;;5108761;28;20051;-61
2021/05/30 11:12:22;;;;;;;9.02;3.58;;;25.70;73.10;;;;;;5103926;28;20048;-60
2021/05/30 11:15:09;;;;;;;4.97;3.30;;;25.60;73.30;;;;;;5109416;28;20058;-61
2021/05/30 11:17:51;;;;;;;5.32;3.42;;;25.50;69.70;;;;;;5083952;28;20126;-61
2021/05/30 11:20:41;;;;;;;5.95;3.53;;;25.40;70.60;;;;;;5072493;28;20095;-61
2021/05/30 11:23:15;;;;;;;8.10;3.95;;;25.40;72.60;;;;;;5066853;28;20558;-60
2021/05/30 11:25:48;;;;;;;10.70;4.93;;;25.40;75.10;;;;;;5111271;28;20063;-61
2021/05/30 11:28:27;;;;;;;7.25;3.42;;;25.30;76.70;;;;;;5065838;28;20067;-60
2021/05/30 11:31:06;;;;;;;6.65;2.72;;;25.30;76.00;;;;;;5074730;28;20056;-60
2021/05/30 11:33:53;;;;;;;9.43;3.72;;;25.20;75.70;;;;;;5104057;28;20055;-61
2021/05/30 11:36:23;;;;;;;4.32;2.92;;;25.10;76.00;;;;;;5074523;28;20045;-60
2021/05/30 11:38:58;;;;;;;5.45;2.13;;;25.00;74.70;;;;;;5080006;28;20048;-61
2021/05/30 11:41:27;;;;;;;4.40;2.70;;;25.00;73.90;;;;;;5081322;28;20044;-60
2021/05/30 11:44:05;;;;;;;3.35;2.25;;;25.00;73.90;;;;;;5086058;28;20055;-61
2021/05/30 11:46:45;;;;;;;5.50;2.20;;;25.00;74.90;;;;;;5068607;28;20410;-61
2021/05/30 11:49:28;;;;;;;6.18;3.30;;;25.00;74.20;;;;;;5096673;28;20101;-61
2021/05/30 11:52:07;;;;;;;7.90;4.13;;;24.90;74.70;;;;;;5106830;28;20117;-61
2021/05/30 11:54:41;;;;;;;5.40;3.47;;;24.80;75.70;;;;;;5089545;28;20437;-61
2021/05/30 11:57:21;;;;;;;4.28;2.55;;;24.70;76.00;;;;;;5105254;28;20127;-61
2021/05/30 11:59:59;;;;;;;7.35;2.20;;;24.60;76.00;;;;;;5109839;28;20047;-60
2021/05/30 12:02:43;;;;;;;3.35;2.50;;;24.40;75.00;;;;;;5103010;28;20044;-61
2021/05/30 12:05:18;;;;;;;4.88;2.42;;;24.30;72.80;;;;;;5073106;28;20076;-60
2021/05/30 12:07:47;;;;;;;5.18;2.00;;;24.20;73.40;;;;;;5096436;28;20048;-60
2021/05/30 12:10:17;;;;;;;4.93;2.50;;;24.10;73.00;;;;;;5096167;28;20481;-61
2021/05/30 12:12:46;;;;;;;5.85;3.22;;;24.00;72.50;;;;;;5099365;28;20055;-61
2021/05/30 12:15:17;;;;;;;5.82;2.75;;;23.90;74.30;;;;;;5113421;28;20062;-60
2021/05/30 12:17:51;;;;;;;5.90;3.03;;;23.90;75.40;;;;;;5079604;28;20049;-60
2021/05/30 12:20:44;;;;;;;5.38;3.10;;;23.90;76.20;;;;;;5113268;28;20130;-60
2021/05/30 12:23:13;;;;;;;6.63;3.42;;;23.80;77.20;;;;;;5082015;28;20372;-60
2021/05/30 12:25:55;;;;;;;7.25;3.08;;;23.70;77.30;;;;;;5072005;28;20037;-61
2021/05/30 12:28:35;;;;;;;5.13;2.58;;;23.60;78.90;;;;;;5102808;28;20047;-60
2021/05/30 12:31:12;;;;;;;5.07;2.90;;;23.40;79.90;;;;;;5092619;28;20409;-60
2021/05/30 12:34:03;;;;;;;8.23;3.40;;;23.30;80.60;;;;;;5096918;28;20072;-61
2021/05/30 12:36:36;;;;;;;6.60;3.95;;;23.20;80.40;;;;;;5078669;28;20050;-61
2021/05/30 12:39:16;;;;;;;6.00;3.38;;;23.00;80.40;;;;;;5086263;28;20047;-60
2021/05/30 12:42:03;;;;;;;8.10;5.65;;;23.00;80.80;;;;;;5107913;28;20101;-60
2021/05/30 12:44:42;;;;;;;6.55;3.30;;;22.80;81.50;;;;;;5107789;28;20054;-61
2021/05/30 12:47:21;;;;;;;8.10;3.45;;;22.80;82.10;;;;;;5104092;28;20130;-60
2021/05/30 12:50:00;;;;;;;5.68;3.35;;;22.70;82.70;;;;;;5092566;28;20481;-61
2021/05/30 12:52:41;;;;;;;;;;;22.70;83.30;;;;;;5104754;28;20048;-61
2021/05/30 12:55:09;;;;;;;8.52;4.72;;;22.70;83.90;;;;;;5115996;28;19920;-60
2021/05/30 12:57:48;;;;;;;8.77;5.05;;;22.60;84.20;;;;;;5104723;28;20044;-60
2021/05/30 13:00:30;;;;;;;13.88;6.35;;;22.60;84.60;;;;;;5078901;28;20044;-60
2021/05/30 13:03:00;;;;;;;8.57;4.38;;;22.60;84.80;;;;;;5061191;28;20410;-60
2021/05/30 13:05:32;;;;;;;12.52;4.82;;;22.70;84.40;;;;;;5117273;28;20075;-61
2021/05/30 13:08:18;;;;;;;8.55;4.97;;;22.70;84.40;;;;;;5091767;28;20054;-61
2021/05/30 13:10:53;;;;;;;9.43;4.22;;;22.60;83.70;;;;;;5115713;28;20108;-61